UAE7MY OMDB-YPPH
Flight info
| Callsign | UAE7MY |
|---|---|
| Flight time | N/A |
| Altitude | 35000 |
| Route | ANVIX L223 TARDI N629 GIDAN P570 KITAL L894 GOLEM/N0498F370 L894 BIBGO DCT LAVOX DCT KADAP DCT 0500S08730E/N0489F390 DCT BEBIM DCT 15S100E 18S105E DCT WONSA/N0486F410 DCT CAR B469 TOPIR/N0489F400 L514 AVPAL Q38 JULIM |
| Aircraft | A359/H-SDE2E3GHIJ3J4J5LM1ORWXY/LB1D1 |
Departure
| Time | 2026-05-07 09:58 |
|---|---|
| Airport | Dubai International Airport (OMDB) |
Arrival
| Time | N/A |
|---|---|
| Airport | Perth International Airport (YPPH) |
| Time | Latitude | Longitude | Altitude | Speed | Heading |
|---|---|---|---|---|---|
| 2026-05-07 08:43 | 25.24151 | 55.37326 | 27 ft | 0 kts | 31° |
| 2026-05-07 09:46 | 25.24139 | 55.37318 | 27 ft | 3 kts | 31° |
| 2026-05-07 09:46 | 25.24120 | 55.37305 | 26 ft | 3 kts | 31° |
| 2026-05-07 09:47 | 25.24103 | 55.37294 | 25 ft | 3 kts | 32° |
| 2026-05-07 09:47 | 25.24086 | 55.37279 | 25 ft | 3 kts | 61° |
| 2026-05-07 09:47 | 25.24081 | 55.37258 | 24 ft | 3 kts | 103° |
| 2026-05-07 09:47 | 25.24090 | 55.37235 | 24 ft | 3 kts | 121° |
| 2026-05-07 09:48 | 25.24101 | 55.37215 | 25 ft | 3 kts | 122° |
| 2026-05-07 09:48 | 25.24111 | 55.37197 | 25 ft | 0 kts | 122° |
| 2026-05-07 09:52 | 25.24102 | 55.37214 | 25 ft | 6 kts | 121° |
| 2026-05-07 09:52 | 25.24069 | 55.37273 | 25 ft | 12 kts | 121° |
| 2026-05-07 09:52 | 25.24015 | 55.37368 | 27 ft | 15 kts | 122° |
| 2026-05-07 09:52 | 25.23972 | 55.37464 | 27 ft | 13 kts | 105° |
| 2026-05-07 09:53 | 25.23984 | 55.37561 | 27 ft | 12 kts | 64° |
| 2026-05-07 09:53 | 25.24040 | 55.37623 | 27 ft | 11 kts | 33° |
| 2026-05-07 09:53 | 25.24106 | 55.37668 | 27 ft | 11 kts | 32° |
| 2026-05-07 09:53 | 25.24172 | 55.37714 | 27 ft | 11 kts | 31° |
| 2026-05-07 09:54 | 25.24240 | 55.37760 | 27 ft | 12 kts | 31° |
| 2026-05-07 09:54 | 25.24308 | 55.37806 | 28 ft | 11 kts | 33° |
| 2026-05-07 09:54 | 25.24350 | 55.37835 | 28 ft | 3 kts | 33° |
| 2026-05-07 09:54 | 25.24361 | 55.37844 | 28 ft | 2 kts | 33° |
| 2026-05-07 09:55 | 25.24382 | 55.37859 | 28 ft | 5 kts | 33° |
| 2026-05-07 09:55 | 25.24422 | 55.37888 | 30 ft | 8 kts | 34° |
| 2026-05-07 09:55 | 25.24476 | 55.37929 | 31 ft | 11 kts | 34° |
| 2026-05-07 09:55 | 25.24554 | 55.37989 | 30 ft | 15 kts | 35° |
| 2026-05-07 09:56 | 25.24638 | 55.38051 | 30 ft | 14 kts | 32° |
| 2026-05-07 09:56 | 25.24714 | 55.38100 | 32 ft | 11 kts | 21° |
| 2026-05-07 09:56 | 25.24776 | 55.38075 | 32 ft | 10 kts | 307° |
| 2026-05-07 09:56 | 25.24798 | 55.38038 | 31 ft | 0 kts | 303° |
| 2026-05-07 09:57 | 25.24799 | 55.38036 | 31 ft | 3 kts | 303° |
| 2026-05-07 09:57 | 25.24902 | 55.37853 | 32 ft | 58 kts | 301° |
| 2026-05-07 09:57 | 25.25214 | 55.37289 | 34 ft | 113 kts | 302° |
| 2026-05-07 09:58 | 25.25704 | 55.36406 | 31 ft | 159 kts | 301° |
| 2026-05-07 09:58 | 25.26335 | 55.35277 | 386 ft | 172 kts | 299° |
| 2026-05-07 09:58 | 25.26946 | 55.34213 | 1148 ft | 159 kts | 298° |
| 2026-05-07 09:58 | 25.27565 | 55.33196 | 1572 ft | 158 kts | 297° |
| 2026-05-07 09:59 | 25.28193 | 55.32219 | 1876 ft | 158 kts | 298° |
| 2026-05-07 09:59 | 25.28819 | 55.31170 | 2060 ft | 168 kts | 296° |
| 2026-05-07 09:59 | 25.29338 | 55.29981 | 2221 ft | 177 kts | 281° |
| 2026-05-07 09:59 | 25.29438 | 55.28584 | 2374 ft | 189 kts | 262° |
| 2026-05-07 10:00 | 25.29087 | 55.27154 | 2563 ft | 198 kts | 245° |
| 2026-05-07 10:00 | 25.28391 | 55.25839 | 2907 ft | 200 kts | 237° |
| 2026-05-07 10:00 | 25.27639 | 55.24547 | 3225 ft | 204 kts | 238° |
| 2026-05-07 10:00 | 25.26876 | 55.23173 | 3400 ft | 219 kts | 241° |
| 2026-05-07 10:01 | 25.26101 | 55.21643 | 3518 ft | 236 kts | 243° |
| 2026-05-07 10:01 | 25.25353 | 55.19973 | 3715 ft | 250 kts | 245° |
| 2026-05-07 10:01 | 25.24575 | 55.18214 | 4089 ft | 251 kts | 241° |
| 2026-05-07 10:01 | 25.23427 | 55.16837 | 4859 ft | 243 kts | 216° |
| 2026-05-07 10:02 | 25.21821 | 55.16209 | 5228 ft | 254 kts | 184° |
| 2026-05-07 10:02 | 25.20033 | 55.16499 | 5342 ft | 270 kts | 159° |
| 2026-05-07 10:02 | 25.18392 | 55.17527 | 5715 ft | 273 kts | 139° |
| 2026-05-07 10:02 | 25.17157 | 55.19113 | 5984 ft | 280 kts | 117° |
| 2026-05-07 10:03 | 25.16306 | 55.21058 | 6277 ft | 286 kts | 111° |
| 2026-05-07 10:03 | 25.15474 | 55.23061 | 6694 ft | 288 kts | 113° |
| 2026-05-07 10:03 | 25.14598 | 55.25037 | 7207 ft | 287 kts | 115° |
| 2026-05-07 10:03 | 25.13688 | 55.27016 | 7674 ft | 288 kts | 116° |
| 2026-05-07 10:04 | 25.12769 | 55.28984 | 8177 ft | 289 kts | 116° |
| 2026-05-07 10:04 | 25.11839 | 55.30939 | 8697 ft | 288 kts | 116° |
| 2026-05-07 10:04 | 25.10903 | 55.32895 | 9200 ft | 289 kts | 116° |
| 2026-05-07 10:04 | 25.09997 | 55.34870 | 9688 ft | 290 kts | 113° |
| 2026-05-07 10:05 | 25.09189 | 55.36870 | 10190 ft | 289 kts | 112° |
| 2026-05-07 10:05 | 25.08375 | 55.38907 | 10708 ft | 288 kts | 112° |
| 2026-05-07 10:05 | 25.07561 | 55.40919 | 11217 ft | 290 kts | 113° |
| 2026-05-07 10:05 | 25.06738 | 55.42958 | 11656 ft | 293 kts | 113° |
| 2026-05-07 10:06 | 25.05929 | 55.45075 | 11913 ft | 305 kts | 112° |
| 2026-05-07 10:06 | 25.05099 | 55.47270 | 12167 ft | 316 kts | 112° |
| 2026-05-07 10:06 | 25.04235 | 55.49536 | 12407 ft | 326 kts | 113° |
| 2026-05-07 10:06 | 25.03336 | 55.51879 | 12644 ft | 337 kts | 113° |
| 2026-05-07 10:07 | 25.02401 | 55.54301 | 12820 ft | 349 kts | 114° |
| 2026-05-07 10:07 | 25.01301 | 55.56671 | 13038 ft | 357 kts | 120° |
| 2026-05-07 10:07 | 25.00022 | 55.59059 | 13292 ft | 365 kts | 121° |
| 2026-05-07 10:07 | 24.98704 | 55.61487 | 13477 ft | 374 kts | 121° |
| 2026-05-07 10:08 | 24.97353 | 55.63980 | 13658 ft | 382 kts | 121° |
| 2026-05-07 10:08 | 24.95979 | 55.66516 | 13836 ft | 389 kts | 121° |
| 2026-05-07 10:08 | 24.94577 | 55.69092 | 14092 ft | 392 kts | 122° |
| 2026-05-07 10:08 | 24.93043 | 55.71593 | 14333 ft | 398 kts | 126° |
| 2026-05-07 10:09 | 24.91404 | 55.74068 | 14547 ft | 403 kts | 126° |
| 2026-05-07 10:09 | 24.89732 | 55.76576 | 14810 ft | 406 kts | 126° |
| 2026-05-07 10:09 | 24.88085 | 55.79052 | 15153 ft | 407 kts | 126° |
| 2026-05-07 10:09 | 24.86409 | 55.81574 | 15472 ft | 409 kts | 126° |
| 2026-05-07 10:10 | 24.84719 | 55.84118 | 15715 ft | 413 kts | 126° |
| 2026-05-07 10:10 | 24.83016 | 55.86679 | 15955 ft | 417 kts | 126° |
| 2026-05-07 10:10 | 24.81279 | 55.89244 | 16282 ft | 418 kts | 127° |
| 2026-05-07 10:10 | 24.79530 | 55.91814 | 16574 ft | 420 kts | 127° |
| 2026-05-07 10:11 | 24.77687 | 55.94315 | 16852 ft | 423 kts | 132° |
| 2026-05-07 10:11 | 24.75634 | 55.96653 | 17095 ft | 426 kts | 135° |
| 2026-05-07 10:11 | 24.73468 | 55.98901 | 17362 ft | 429 kts | 137° |
| 2026-05-07 10:11 | 24.71257 | 56.01108 | 17624 ft | 431 kts | 138° |
| 2026-05-07 10:12 | 24.69053 | 56.03296 | 17913 ft | 434 kts | 138° |
| 2026-05-07 10:12 | 24.66821 | 56.05534 | 18167 ft | 436 kts | 137° |
| 2026-05-07 10:12 | 24.64583 | 56.07800 | 18428 ft | 437 kts | 137° |
| 2026-05-07 10:12 | 24.62357 | 56.10072 | 18693 ft | 438 kts | 137° |
| 2026-05-07 10:13 | 24.60119 | 56.12368 | 18938 ft | 441 kts | 137° |
| 2026-05-07 10:13 | 24.57899 | 56.14694 | 19134 ft | 443 kts | 134° |
| 2026-05-07 10:13 | 24.55807 | 56.17174 | 19386 ft | 445 kts | 132° |
| 2026-05-07 10:13 | 24.53771 | 56.19692 | 19618 ft | 447 kts | 131° |
| 2026-05-07 10:14 | 24.51728 | 56.22277 | 19866 ft | 449 kts | 131° |
| 2026-05-07 10:14 | 24.49691 | 56.24882 | 20095 ft | 451 kts | 131° |
| 2026-05-07 10:14 | 24.47654 | 56.27493 | 20334 ft | 452 kts | 131° |
| 2026-05-07 10:14 | 24.45596 | 56.30129 | 20561 ft | 455 kts | 131° |
| 2026-05-07 10:15 | 24.43526 | 56.32774 | 20687 ft | 459 kts | 131° |
| 2026-05-07 10:15 | 24.41440 | 56.35429 | 20909 ft | 460 kts | 131° |
| 2026-05-07 10:15 | 24.39350 | 56.38085 | 21150 ft | 462 kts | 131° |
| 2026-05-07 10:15 | 24.37269 | 56.40726 | 21411 ft | 463 kts | 132° |
| 2026-05-07 10:16 | 24.35157 | 56.43403 | 21572 ft | 466 kts | 132° |
| 2026-05-07 10:16 | 24.33029 | 56.46101 | 21772 ft | 469 kts | 132° |
| 2026-05-07 10:16 | 24.30884 | 56.48817 | 22031 ft | 470 kts | 132° |
| 2026-05-07 10:16 | 24.28752 | 56.51545 | 22302 ft | 472 kts | 130° |
| 2026-05-07 10:17 | 24.26745 | 56.54387 | 22562 ft | 474 kts | 128° |
| 2026-05-07 10:17 | 24.24819 | 56.57340 | 22725 ft | 478 kts | 126° |
| 2026-05-07 10:17 | 24.22916 | 56.60336 | 22999 ft | 478 kts | 126° |
| 2026-05-07 10:17 | 24.21013 | 56.63324 | 23301 ft | 479 kts | 126° |
| 2026-05-07 10:18 | 24.19093 | 56.66299 | 23516 ft | 481 kts | 126° |
| 2026-05-07 10:18 | 24.17161 | 56.69253 | 23707 ft | 483 kts | 127° |
| 2026-05-07 10:18 | 24.15187 | 56.72240 | 23910 ft | 484 kts | 127° |
| 2026-05-07 10:18 | 24.13206 | 56.75217 | 24107 ft | 486 kts | 127° |
| 2026-05-07 10:19 | 24.11203 | 56.78220 | 24337 ft | 487 kts | 127° |
| 2026-05-07 10:19 | 24.09203 | 56.81214 | 24560 ft | 489 kts | 127° |
| 2026-05-07 10:19 | 24.07191 | 56.84226 | 24742 ft | 491 kts | 127° |
| 2026-05-07 10:19 | 24.05178 | 56.87239 | 24967 ft | 493 kts | 127° |
| 2026-05-07 10:20 | 24.03147 | 56.90281 | 25188 ft | 494 kts | 127° |
| 2026-05-07 10:20 | 24.01120 | 56.93320 | 25418 ft | 496 kts | 127° |
| 2026-05-07 10:20 | 23.99103 | 56.96333 | 25641 ft | 498 kts | 127° |
| 2026-05-07 10:20 | 23.97056 | 56.99387 | 25886 ft | 500 kts | 128° |
| 2026-05-07 10:21 | 23.94999 | 57.02452 | 26132 ft | 502 kts | 128° |
| 2026-05-07 10:21 | 23.92928 | 57.05538 | 26383 ft | 503 kts | 128° |
| 2026-05-07 10:21 | 23.90851 | 57.08632 | 26624 ft | 505 kts | 128° |
| 2026-05-07 10:21 | 23.88773 | 57.11727 | 26894 ft | 507 kts | 128° |
| 2026-05-07 10:22 | 23.86681 | 57.14849 | 27124 ft | 510 kts | 128° |
| 2026-05-07 10:22 | 23.84578 | 57.17980 | 27338 ft | 512 kts | 128° |
| 2026-05-07 10:22 | 23.82493 | 57.21079 | 27588 ft | 514 kts | 128° |
| 2026-05-07 10:22 | 23.80374 | 57.24226 | 27825 ft | 516 kts | 128° |
| 2026-05-07 10:23 | 23.78242 | 57.27391 | 28046 ft | 518 kts | 128° |
| 2026-05-07 10:23 | 23.76106 | 57.30561 | 28269 ft | 520 kts | 128° |
| 2026-05-07 10:23 | 23.73958 | 57.33748 | 28503 ft | 521 kts | 128° |
| 2026-05-07 10:23 | 23.71808 | 57.36936 | 28718 ft | 523 kts | 128° |
| 2026-05-07 10:24 | 23.69610 | 57.40099 | 28933 ft | 524 kts | 129° |
| 2026-05-07 10:24 | 23.67344 | 57.43220 | 29218 ft | 524 kts | 130° |
| 2026-05-07 10:24 | 23.65056 | 57.46318 | 29523 ft | 524 kts | 130° |
| 2026-05-07 10:24 | 23.62772 | 57.49402 | 29795 ft | 523 kts | 130° |
| 2026-05-07 10:25 | 23.60490 | 57.52494 | 30073 ft | 523 kts | 130° |
| 2026-05-07 10:25 | 23.58220 | 57.55585 | 30344 ft | 522 kts | 130° |
| 2026-05-07 10:25 | 23.55987 | 57.58639 | 30586 ft | 522 kts | 130° |
| 2026-05-07 10:25 | 23.53733 | 57.61726 | 30813 ft | 521 kts | 130° |
| 2026-05-07 10:26 | 23.51475 | 57.64820 | 31055 ft | 520 kts | 130° |
| 2026-05-07 10:26 | 23.49223 | 57.67907 | 31299 ft | 521 kts | 130° |
| 2026-05-07 10:26 | 23.46974 | 57.70995 | 31484 ft | 520 kts | 130° |
| 2026-05-07 10:26 | 23.44732 | 57.74065 | 31723 ft | 520 kts | 130° |
| 2026-05-07 10:27 | 23.42473 | 57.77151 | 31972 ft | 519 kts | 130° |
| 2026-05-07 10:27 | 23.40240 | 57.80195 | 32237 ft | 517 kts | 130° |
| 2026-05-07 10:27 | 23.37976 | 57.83279 | 32462 ft | 517 kts | 130° |
| 2026-05-07 10:27 | 23.35764 | 57.86292 | 32680 ft | 516 kts | 130° |
| 2026-05-07 10:28 | 23.33531 | 57.89329 | 32911 ft | 515 kts | 131° |
| 2026-05-07 10:28 | 23.31293 | 57.92367 | 33122 ft | 515 kts | 131° |
| 2026-05-07 10:28 | 23.29049 | 57.95419 | 33340 ft | 514 kts | 131° |
| 2026-05-07 10:28 | 23.26820 | 57.98453 | 33535 ft | 513 kts | 131° |
| 2026-05-07 10:29 | 23.24599 | 58.01475 | 33753 ft | 512 kts | 130° |
| 2026-05-07 10:29 | 23.22430 | 58.04547 | 33973 ft | 511 kts | 128° |
| 2026-05-07 10:29 | 23.20399 | 58.07718 | 34148 ft | 511 kts | 126° |
| 2026-05-07 10:30 | 23.16506 | 58.14104 | 34441 ft | 511 kts | 125° |
| 2026-05-07 10:30 | 23.14532 | 58.17330 | 34568 ft | 511 kts | 126° |
| 2026-05-07 10:30 | 23.12546 | 58.20536 | 34710 ft | 511 kts | 126° |
| 2026-05-07 10:30 | 23.10546 | 58.23727 | 34775 ft | 512 kts | 126° |
| 2026-05-07 10:31 | 23.06498 | 58.30123 | 34847 ft | 516 kts | 127° |
| 2026-05-07 10:31 | 23.02153 | 58.36330 | 34844 ft | 514 kts | 136° |
| 2026-05-07 10:32 | 22.96573 | 58.41045 | 34846 ft | 508 kts | 149° |
| 2026-05-07 10:32 | 22.90611 | 58.45061 | 34853 ft | 508 kts | 151° |
| 2026-05-07 10:33 | 22.84560 | 58.49011 | 34845 ft | 508 kts | 151° |
| 2026-05-07 10:33 | 22.78515 | 58.52975 | 34844 ft | 509 kts | 150° |
| 2026-05-07 10:34 | 22.72465 | 58.56970 | 34845 ft | 509 kts | 150° |
| 2026-05-07 10:34 | 22.66470 | 58.60933 | 34848 ft | 509 kts | 150° |
| 2026-05-07 10:35 | 22.60427 | 58.64927 | 34851 ft | 509 kts | 150° |
| 2026-05-07 10:35 | 22.54384 | 58.68912 | 34850 ft | 509 kts | 150° |
| 2026-05-07 10:36 | 22.48336 | 58.72896 | 34856 ft | 509 kts | 150° |
| 2026-05-07 10:36 | 22.42324 | 58.76853 | 34856 ft | 509 kts | 150° |
| 2026-05-07 10:37 | 22.36274 | 58.80832 | 34857 ft | 509 kts | 150° |
| 2026-05-07 10:37 | 22.30234 | 58.84799 | 34854 ft | 509 kts | 150° |
| 2026-05-07 10:38 | 22.24179 | 58.88772 | 34853 ft | 510 kts | 150° |
| 2026-05-07 10:38 | 22.18113 | 58.92757 | 34854 ft | 510 kts | 150° |
| 2026-05-07 10:39 | 22.12089 | 58.96698 | 34849 ft | 510 kts | 150° |
| 2026-05-07 10:39 | 22.06027 | 59.00660 | 34848 ft | 509 kts | 150° |
| 2026-05-07 10:40 | 22.00212 | 59.05033 | 34846 ft | 512 kts | 143° |
| 2026-05-07 10:40 | 21.94715 | 59.09920 | 34843 ft | 513 kts | 141° |
| 2026-05-07 10:41 | 21.89278 | 59.14904 | 34832 ft | 513 kts | 141° |
| 2026-05-07 10:41 | 21.83842 | 59.19871 | 34825 ft | 513 kts | 141° |
| 2026-05-07 10:42 | 21.78417 | 59.24796 | 34832 ft | 513 kts | 141° |
| 2026-05-07 10:42 | 21.72960 | 59.29733 | 34823 ft | 513 kts | 141° |
| 2026-05-07 10:43 | 21.67498 | 59.34670 | 34823 ft | 513 kts | 141° |
| 2026-05-07 10:43 | 21.62022 | 59.39615 | 34818 ft | 514 kts | 142° |
| 2026-05-07 10:44 | 21.56547 | 59.44554 | 34817 ft | 514 kts | 141° |
| 2026-05-07 10:44 | 21.51115 | 59.49451 | 34818 ft | 513 kts | 141° |
| 2026-05-07 10:45 | 21.45637 | 59.54383 | 34826 ft | 513 kts | 141° |
| 2026-05-07 10:45 | 21.40167 | 59.59303 | 34826 ft | 513 kts | 141° |
| 2026-05-07 10:46 | 21.34703 | 59.64213 | 34827 ft | 514 kts | 141° |
| 2026-05-07 10:46 | 21.29247 | 59.69111 | 34829 ft | 513 kts | 141° |
| 2026-05-07 10:47 | 21.23775 | 59.74019 | 34831 ft | 514 kts | 141° |
| 2026-05-07 10:47 | 21.18293 | 59.78930 | 34831 ft | 513 kts | 141° |
| 2026-05-07 10:48 | 21.12809 | 59.83837 | 34837 ft | 513 kts | 141° |
| 2026-05-07 10:48 | 21.07345 | 59.88723 | 34837 ft | 512 kts | 141° |
| 2026-05-07 10:49 | 21.01865 | 59.93617 | 34841 ft | 514 kts | 141° |
| 2026-05-07 10:49 | 20.96412 | 59.98484 | 34840 ft | 513 kts | 141° |
| 2026-05-07 10:50 | 20.90928 | 60.03373 | 34840 ft | 513 kts | 141° |
| 2026-05-07 10:50 | 20.85447 | 60.08254 | 34843 ft | 514 kts | 141° |
| 2026-05-07 10:51 | 20.79957 | 60.13139 | 34845 ft | 513 kts | 142° |
| 2026-05-07 10:51 | 20.74461 | 60.18023 | 34846 ft | 513 kts | 141° |
| 2026-05-07 10:52 | 20.69019 | 60.22855 | 34845 ft | 514 kts | 141° |
| 2026-05-07 10:52 | 20.63506 | 60.27746 | 34846 ft | 515 kts | 141° |
| 2026-05-07 10:53 | 20.57989 | 60.32634 | 34847 ft | 515 kts | 141° |
| 2026-05-07 10:53 | 20.52499 | 60.37496 | 34847 ft | 514 kts | 141° |
| 2026-05-07 10:54 | 20.46993 | 60.42365 | 34852 ft | 515 kts | 141° |
| 2026-05-07 10:54 | 20.41512 | 60.47208 | 34850 ft | 515 kts | 141° |
| 2026-05-07 10:55 | 20.36002 | 60.52073 | 34850 ft | 514 kts | 141° |
| 2026-05-07 10:55 | 20.30496 | 60.56930 | 34852 ft | 514 kts | 141° |
| 2026-05-07 10:56 | 20.25018 | 60.61757 | 34855 ft | 516 kts | 141° |
| 2026-05-07 10:56 | 20.19502 | 60.66612 | 34854 ft | 515 kts | 141° |
| 2026-05-07 10:57 | 20.13995 | 60.71455 | 34855 ft | 513 kts | 141° |
| 2026-05-07 10:57 | 20.08483 | 60.76299 | 34853 ft | 513 kts | 141° |
| 2026-05-07 10:58 | 20.02967 | 60.81142 | 34857 ft | 514 kts | 141° |
| 2026-05-07 10:58 | 19.97497 | 60.85939 | 34857 ft | 513 kts | 141° |
| 2026-05-07 10:59 | 19.92005 | 60.90752 | 34856 ft | 512 kts | 141° |
| 2026-05-07 10:59 | 19.86494 | 60.95576 | 34853 ft | 513 kts | 141° |
| 2026-05-07 11:00 | 19.80987 | 61.00392 | 34855 ft | 512 kts | 141° |
| 2026-05-07 11:00 | 19.75537 | 61.05154 | 34858 ft | 510 kts | 141° |
| 2026-05-07 11:01 | 19.70043 | 61.09949 | 34854 ft | 512 kts | 141° |
| 2026-05-07 11:01 | 19.64539 | 61.14749 | 34855 ft | 513 kts | 141° |
| 2026-05-07 11:02 | 19.59031 | 61.19548 | 34854 ft | 512 kts | 141° |
| 2026-05-07 11:02 | 19.53561 | 61.24311 | 34854 ft | 511 kts | 141° |
| 2026-05-07 11:03 | 19.48062 | 61.29094 | 34853 ft | 512 kts | 141° |
| 2026-05-07 11:03 | 19.42543 | 61.33889 | 34854 ft | 513 kts | 141° |
| 2026-05-07 11:04 | 19.37027 | 61.38677 | 34855 ft | 513 kts | 141° |
| 2026-05-07 11:04 | 19.31556 | 61.43422 | 34852 ft | 511 kts | 141° |
| 2026-05-07 11:05 | 19.26062 | 61.48184 | 34854 ft | 511 kts | 141° |
| 2026-05-07 11:05 | 19.20551 | 61.52955 | 34854 ft | 511 kts | 141° |
| 2026-05-07 11:06 | 19.15054 | 61.57710 | 34854 ft | 511 kts | 141° |
| 2026-05-07 11:06 | 19.09603 | 61.62422 | 34853 ft | 510 kts | 141° |
| 2026-05-07 11:07 | 19.04100 | 61.67173 | 34854 ft | 510 kts | 141° |
| 2026-05-07 11:07 | 18.98603 | 61.71916 | 34853 ft | 510 kts | 141° |
| 2026-05-07 11:08 | 18.93108 | 61.76652 | 34853 ft | 509 kts | 141° |
| 2026-05-07 11:08 | 18.87657 | 61.81347 | 34855 ft | 509 kts | 141° |
| 2026-05-07 11:09 | 18.82169 | 61.86071 | 34853 ft | 510 kts | 141° |
| 2026-05-07 11:09 | 18.76671 | 61.90797 | 34853 ft | 509 kts | 141° |
| 2026-05-07 11:10 | 18.71185 | 61.95509 | 34853 ft | 508 kts | 141° |
| 2026-05-07 11:10 | 18.65704 | 62.00213 | 34855 ft | 509 kts | 141° |
| 2026-05-07 11:11 | 18.60252 | 62.04888 | 34853 ft | 509 kts | 141° |
| 2026-05-07 11:11 | 18.54758 | 62.09596 | 34852 ft | 509 kts | 141° |
| 2026-05-07 11:12 | 18.49267 | 62.14297 | 34853 ft | 508 kts | 141° |
| 2026-05-07 11:12 | 18.43780 | 62.18991 | 34854 ft | 508 kts | 141° |
| 2026-05-07 11:13 | 18.38320 | 62.23657 | 34854 ft | 509 kts | 141° |
| 2026-05-07 11:13 | 18.32832 | 62.28343 | 34853 ft | 509 kts | 141° |
| 2026-05-07 11:14 | 18.27326 | 62.33040 | 34853 ft | 508 kts | 141° |
| 2026-05-07 11:14 | 18.21837 | 62.37720 | 34853 ft | 508 kts | 141° |
| 2026-05-07 11:15 | 18.16373 | 62.42375 | 34854 ft | 509 kts | 141° |
| 2026-05-07 11:15 | 18.10867 | 62.47060 | 34853 ft | 509 kts | 141° |
| 2026-05-07 11:16 | 18.05366 | 62.51738 | 34853 ft | 508 kts | 141° |
| 2026-05-07 11:16 | 17.99863 | 62.56413 | 34854 ft | 509 kts | 141° |
| 2026-05-07 11:17 | 17.94358 | 62.61087 | 34853 ft | 509 kts | 141° |
| 2026-05-07 11:17 | 17.88889 | 62.65726 | 34854 ft | 509 kts | 141° |
| 2026-05-07 11:18 | 17.84279 | 62.69633 | 34853 ft | 508 kts | 141° |
| 2026-05-07 11:20 | 17.81393 | 62.72078 | 34855 ft | 508 kts | 141° |
| 2026-05-07 11:20 | 17.75888 | 62.76739 | 34852 ft | 508 kts | 141° |
| 2026-05-07 11:21 | 17.70381 | 62.81396 | 34854 ft | 509 kts | 141° |
| 2026-05-07 11:21 | 17.64904 | 62.86026 | 34854 ft | 509 kts | 141° |
| 2026-05-07 11:22 | 17.59404 | 62.90671 | 34853 ft | 508 kts | 141° |
| 2026-05-07 11:22 | 17.53886 | 62.95327 | 34854 ft | 508 kts | 141° |
| 2026-05-07 11:23 | 17.48370 | 62.99978 | 34854 ft | 510 kts | 141° |
| 2026-05-07 11:23 | 17.42883 | 63.04600 | 34854 ft | 510 kts | 141° |
| 2026-05-07 11:24 | 17.37366 | 63.09245 | 34854 ft | 509 kts | 141° |
| 2026-05-07 11:24 | 17.31845 | 63.13889 | 34853 ft | 509 kts | 141° |
| 2026-05-07 11:25 | 17.26317 | 63.18535 | 34854 ft | 511 kts | 141° |
| 2026-05-07 11:25 | 17.20814 | 63.23156 | 34854 ft | 510 kts | 141° |
| 2026-05-07 11:26 | 17.15282 | 63.27798 | 34853 ft | 509 kts | 141° |
| 2026-05-07 11:26 | 17.09749 | 63.32438 | 34854 ft | 510 kts | 141° |
| 2026-05-07 11:27 | 17.04212 | 63.37077 | 34854 ft | 511 kts | 141° |
| 2026-05-07 11:27 | 16.98711 | 63.41682 | 34852 ft | 510 kts | 141° |
| 2026-05-07 11:28 | 16.93170 | 63.46318 | 34854 ft | 510 kts | 141° |
| 2026-05-07 11:28 | 16.87633 | 63.50946 | 34849 ft | 510 kts | 141° |
| 2026-05-07 11:29 | 16.82092 | 63.55574 | 34854 ft | 511 kts | 141° |
| 2026-05-07 11:29 | 16.76565 | 63.60186 | 34854 ft | 511 kts | 141° |
| 2026-05-07 11:30 | 16.71015 | 63.64815 | 34850 ft | 510 kts | 141° |
| 2026-05-07 11:30 | 16.65466 | 63.69439 | 34850 ft | 510 kts | 141° |
| 2026-05-07 11:31 | 16.62691 | 63.71750 | 34851 ft | 511 kts | 141° |
| 2026-05-07 11:32 | 16.56205 | 63.77149 | 34848 ft | 512 kts | 141° |
| 2026-05-07 11:33 | 16.50642 | 63.81774 | 34851 ft | 511 kts | 141° |
| 2026-05-07 11:33 | 16.45076 | 63.86400 | 34851 ft | 510 kts | 141° |
| 2026-05-07 11:34 | 16.39570 | 63.90972 | 34852 ft | 511 kts | 141° |
| 2026-05-07 11:34 | 16.34007 | 63.95588 | 34850 ft | 512 kts | 141° |
| 2026-05-07 11:35 | 16.28438 | 64.00206 | 34851 ft | 512 kts | 141° |
| 2026-05-07 11:35 | 16.23803 | 64.04047 | 34851 ft | 511 kts | 141° |
| 2026-05-07 11:36 | 16.18243 | 64.08650 | 34850 ft | 510 kts | 141° |
| 2026-05-07 11:36 | 16.11775 | 64.14001 | 34850 ft | 512 kts | 141° |
| 2026-05-07 11:37 | 16.07133 | 64.17839 | 34850 ft | 513 kts | 141° |
| 2026-05-07 11:37 | 16.01551 | 64.22451 | 34852 ft | 512 kts | 141° |
| 2026-05-07 11:38 | 15.95980 | 64.27050 | 34851 ft | 511 kts | 141° |
| 2026-05-07 11:38 | 15.89508 | 64.32389 | 34855 ft | 512 kts | 141° |
| 2026-05-07 11:39 | 15.84832 | 64.36243 | 34853 ft | 513 kts | 141° |
| 2026-05-07 11:39 | 15.79273 | 64.40822 | 34853 ft | 513 kts | 141° |
| 2026-05-07 11:40 | 15.73711 | 64.45401 | 34854 ft | 511 kts | 141° |
| 2026-05-07 11:40 | 15.68117 | 64.50002 | 34852 ft | 511 kts | 141° |
| 2026-05-07 11:41 | 15.62548 | 64.54580 | 34853 ft | 511 kts | 141° |
| 2026-05-07 11:41 | 15.57003 | 64.59135 | 34854 ft | 512 kts | 141° |
| 2026-05-07 11:42 | 15.51422 | 64.63715 | 34855 ft | 512 kts | 141° |
| 2026-05-07 11:42 | 15.45842 | 64.68292 | 34854 ft | 510 kts | 141° |
| 2026-05-07 11:43 | 15.40319 | 64.72819 | 34852 ft | 509 kts | 141° |
| 2026-05-07 11:43 | 15.34772 | 64.77362 | 34855 ft | 510 kts | 141° |
| 2026-05-07 11:44 | 15.29196 | 64.81927 | 34853 ft | 510 kts | 141° |
| 2026-05-07 11:44 | 15.23638 | 64.86472 | 34854 ft | 509 kts | 141° |
| 2026-05-07 11:45 | 15.18079 | 64.91017 | 34853 ft | 508 kts | 141° |
| 2026-05-07 11:45 | 15.12575 | 64.95511 | 34851 ft | 507 kts | 141° |
| 2026-05-07 11:46 | 15.07028 | 65.00039 | 34850 ft | 508 kts | 141° |
| 2026-05-07 11:46 | 15.01480 | 65.04565 | 34850 ft | 508 kts | 141° |
| 2026-05-07 11:47 | 14.95934 | 65.09086 | 34852 ft | 507 kts | 141° |
| 2026-05-07 11:47 | 14.90423 | 65.13575 | 34848 ft | 508 kts | 141° |
| 2026-05-07 11:48 | 14.84884 | 65.18084 | 34846 ft | 506 kts | 141° |
| 2026-05-07 11:48 | 14.79365 | 65.22574 | 34849 ft | 505 kts | 141° |
| 2026-05-07 11:49 | 14.73843 | 65.27063 | 34849 ft | 505 kts | 141° |
| 2026-05-07 11:49 | 14.68323 | 65.31548 | 34847 ft | 505 kts | 141° |
| 2026-05-07 11:50 | 14.62830 | 65.36007 | 34848 ft | 505 kts | 141° |
| 2026-05-07 11:50 | 14.57311 | 65.40484 | 34845 ft | 504 kts | 141° |
| 2026-05-07 11:51 | 14.51805 | 65.44949 | 34845 ft | 503 kts | 141° |
| 2026-05-07 11:51 | 14.46303 | 65.49407 | 34843 ft | 503 kts | 141° |
| 2026-05-07 11:52 | 14.40840 | 65.53831 | 34843 ft | 503 kts | 141° |
| 2026-05-07 11:52 | 14.35336 | 65.58285 | 34842 ft | 503 kts | 141° |
| 2026-05-07 11:53 | 14.29833 | 65.62735 | 34844 ft | 503 kts | 141° |
| 2026-05-07 11:53 | 14.24341 | 65.67174 | 34843 ft | 501 kts | 141° |
| 2026-05-07 11:54 | 14.18886 | 65.71580 | 34842 ft | 501 kts | 141° |
| 2026-05-07 11:54 | 14.13394 | 65.76013 | 34842 ft | 502 kts | 141° |
| 2026-05-07 11:55 | 14.07904 | 65.80442 | 34843 ft | 501 kts | 141° |
| 2026-05-07 11:55 | 14.02413 | 65.84869 | 34842 ft | 501 kts | 141° |
| 2026-05-07 11:56 | 13.96959 | 65.89263 | 34841 ft | 501 kts | 141° |
| 2026-05-07 11:56 | 13.91466 | 65.93686 | 34839 ft | 501 kts | 142° |
| 2026-05-07 11:57 | 13.85966 | 65.98112 | 34841 ft | 502 kts | 141° |
| 2026-05-07 11:57 | 13.80462 | 66.02537 | 34839 ft | 502 kts | 142° |
| 2026-05-07 11:58 | 13.74994 | 66.06931 | 34840 ft | 501 kts | 141° |
| 2026-05-07 11:58 | 13.69498 | 66.11346 | 34838 ft | 502 kts | 142° |
| 2026-05-07 11:59 | 13.64004 | 66.15757 | 34837 ft | 501 kts | 142° |
| 2026-05-07 11:59 | 13.58509 | 66.20165 | 34836 ft | 501 kts | 142° |
| 2026-05-07 12:00 | 13.53021 | 66.24565 | 34838 ft | 500 kts | 142° |
| 2026-05-07 12:00 | 13.47576 | 66.28927 | 34840 ft | 500 kts | 141° |
| 2026-05-07 12:01 | 13.42073 | 66.33334 | 34839 ft | 501 kts | 142° |
| 2026-05-07 12:01 | 13.36579 | 66.37731 | 34836 ft | 501 kts | 142° |
| 2026-05-07 12:02 | 13.31079 | 66.42130 | 34838 ft | 501 kts | 142° |
| 2026-05-07 12:02 | 13.25620 | 66.46493 | 34836 ft | 500 kts | 141° |
| 2026-05-07 12:03 | 13.20132 | 66.50877 | 34837 ft | 500 kts | 142° |
| 2026-05-07 12:03 | 13.14644 | 66.55259 | 34836 ft | 500 kts | 141° |
| 2026-05-07 12:04 | 13.09149 | 66.59644 | 34836 ft | 500 kts | 141° |
| 2026-05-07 12:04 | 13.03689 | 66.63999 | 34837 ft | 501 kts | 142° |
| 2026-05-07 12:05 | 12.98184 | 66.68385 | 34835 ft | 500 kts | 142° |
| 2026-05-07 12:05 | 12.92686 | 66.72765 | 34838 ft | 500 kts | 142° |
| 2026-05-07 12:06 | 12.87197 | 66.77135 | 34837 ft | 500 kts | 142° |
| 2026-05-07 12:06 | 12.81743 | 66.81475 | 34836 ft | 500 kts | 142° |
| 2026-05-07 12:07 | 12.76246 | 66.85846 | 34836 ft | 500 kts | 142° |
| 2026-05-07 12:07 | 12.70738 | 66.90223 | 34837 ft | 501 kts | 142° |
| 2026-05-07 12:08 | 12.65239 | 66.94591 | 34836 ft | 501 kts | 142° |
| 2026-05-07 12:08 | 12.59774 | 66.98929 | 34837 ft | 500 kts | 142° |
| 2026-05-07 12:09 | 12.54283 | 67.03286 | 34839 ft | 500 kts | 142° |
| 2026-05-07 12:09 | 12.48779 | 67.07651 | 34837 ft | 500 kts | 142° |
| 2026-05-07 12:10 | 12.43271 | 67.12016 | 34838 ft | 501 kts | 142° |
| 2026-05-07 12:10 | 12.37803 | 67.16348 | 34839 ft | 500 kts | 142° |
| 2026-05-07 12:11 | 12.32310 | 67.20696 | 34843 ft | 499 kts | 142° |
| 2026-05-07 12:11 | 12.26809 | 67.25049 | 34839 ft | 499 kts | 142° |
| 2026-05-07 12:12 | 12.21315 | 67.29393 | 34840 ft | 500 kts | 142° |
| 2026-05-07 12:12 | 12.15846 | 67.33717 | 34839 ft | 500 kts | 142° |
| 2026-05-07 12:13 | 12.10334 | 67.38070 | 34839 ft | 500 kts | 142° |
| 2026-05-07 12:13 | 12.04830 | 67.42417 | 34840 ft | 500 kts | 142° |
| 2026-05-07 12:14 | 11.99326 | 67.46759 | 34837 ft | 499 kts | 142° |
| 2026-05-07 12:14 | 11.93864 | 67.51068 | 34840 ft | 500 kts | 142° |
| 2026-05-07 12:15 | 11.88366 | 67.55402 | 34837 ft | 500 kts | 142° |
| 2026-05-07 12:15 | 11.82859 | 67.59741 | 34842 ft | 500 kts | 142° |
| 2026-05-07 12:16 | 11.77341 | 67.64086 | 34839 ft | 500 kts | 142° |
| 2026-05-07 12:16 | 11.71868 | 67.68394 | 34841 ft | 500 kts | 142° |
| 2026-05-07 12:17 | 11.66369 | 67.72720 | 34840 ft | 499 kts | 142° |
| 2026-05-07 12:17 | 11.60869 | 67.77044 | 34840 ft | 500 kts | 142° |
| 2026-05-07 12:18 | 11.55361 | 67.81373 | 34839 ft | 500 kts | 142° |
| 2026-05-07 12:18 | 11.49839 | 67.85710 | 34838 ft | 501 kts | 142° |
| 2026-05-07 12:19 | 11.44365 | 67.90007 | 34835 ft | 500 kts | 142° |
| 2026-05-07 12:19 | 11.38848 | 67.94336 | 34838 ft | 500 kts | 142° |
| 2026-05-07 12:20 | 11.33335 | 67.98659 | 34838 ft | 500 kts | 142° |
| 2026-05-07 12:20 | 11.27824 | 68.02980 | 34837 ft | 500 kts | 142° |
| 2026-05-07 12:21 | 11.22345 | 68.07273 | 34838 ft | 500 kts | 142° |
| 2026-05-07 12:21 | 11.16819 | 68.11599 | 34835 ft | 501 kts | 142° |
| 2026-05-07 12:22 | 11.11299 | 68.15920 | 34834 ft | 500 kts | 142° |
| 2026-05-07 12:22 | 11.05785 | 68.20234 | 34832 ft | 499 kts | 142° |
| 2026-05-07 12:23 | 11.00316 | 68.24510 | 34835 ft | 499 kts | 142° |
| 2026-05-07 12:23 | 10.94804 | 68.28818 | 34836 ft | 500 kts | 142° |
| 2026-05-07 12:24 | 10.89289 | 68.33127 | 34833 ft | 500 kts | 142° |
| 2026-05-07 12:24 | 10.83766 | 68.37439 | 34835 ft | 501 kts | 142° |
| 2026-05-07 12:25 | 10.78282 | 68.41719 | 34831 ft | 500 kts | 142° |
| 2026-05-07 12:25 | 10.72763 | 68.46025 | 34830 ft | 500 kts | 142° |
| 2026-05-07 12:26 | 10.67255 | 68.50319 | 34832 ft | 499 kts | 142° |
| 2026-05-07 12:26 | 10.61745 | 68.54614 | 34832 ft | 500 kts | 142° |
| 2026-05-07 12:27 | 10.56229 | 68.58910 | 34833 ft | 499 kts | 142° |
| 2026-05-07 12:27 | 10.50746 | 68.63179 | 34835 ft | 500 kts | 142° |
| 2026-05-07 12:28 | 10.45226 | 68.67475 | 34833 ft | 499 kts | 142° |
| 2026-05-07 12:28 | 10.39712 | 68.71765 | 34834 ft | 499 kts | 142° |
| 2026-05-07 12:29 | 10.34201 | 68.76050 | 34834 ft | 498 kts | 142° |
| 2026-05-07 12:29 | 10.28738 | 68.80297 | 34835 ft | 499 kts | 142° |
| 2026-05-07 12:30 | 10.23221 | 68.84582 | 34833 ft | 499 kts | 142° |
| 2026-05-07 12:30 | 10.17706 | 68.88865 | 34836 ft | 500 kts | 142° |
| 2026-05-07 12:31 | 10.12181 | 68.93152 | 34830 ft | 499 kts | 142° |
| 2026-05-07 12:31 | 10.06711 | 68.97396 | 34834 ft | 499 kts | 142° |
| 2026-05-07 12:32 | 10.01193 | 69.01675 | 34831 ft | 498 kts | 142° |
| 2026-05-07 12:32 | 9.95692 | 69.05940 | 34832 ft | 498 kts | 142° |
| 2026-05-07 12:33 | 9.87426 | 69.12344 | 34837 ft | 498 kts | 142° |
| 2026-05-07 12:33 | 9.81955 | 69.16581 | 34832 ft | 499 kts | 142° |
| 2026-05-07 12:34 | 9.76436 | 69.20852 | 34833 ft | 499 kts | 141° |
| 2026-05-07 12:34 | 9.70934 | 69.25108 | 34828 ft | 497 kts | 142° |
| 2026-05-07 12:35 | 9.65433 | 69.29361 | 34826 ft | 497 kts | 141° |
| 2026-05-07 12:35 | 9.59985 | 69.33573 | 34825 ft | 495 kts | 141° |
| 2026-05-07 12:36 | 9.54495 | 69.37814 | 34829 ft | 497 kts | 141° |
| 2026-05-07 12:36 | 9.48990 | 69.42066 | 34826 ft | 498 kts | 141° |
| 2026-05-07 12:37 | 9.43515 | 69.46293 | 34827 ft | 498 kts | 141° |
| 2026-05-07 12:37 | 9.38003 | 69.50546 | 34826 ft | 498 kts | 141° |
| 2026-05-07 12:38 | 9.32491 | 69.54798 | 34823 ft | 497 kts | 141° |
| 2026-05-07 12:38 | 9.26999 | 69.59033 | 34823 ft | 496 kts | 141° |
| 2026-05-07 12:39 | 9.21503 | 69.63268 | 34828 ft | 496 kts | 141° |
| 2026-05-07 12:39 | 9.16057 | 69.67464 | 34825 ft | 496 kts | 141° |
| 2026-05-07 12:40 | 9.10571 | 69.71690 | 34823 ft | 495 kts | 141° |
| 2026-05-07 12:40 | 9.05083 | 69.75916 | 34824 ft | 496 kts | 141° |
| 2026-05-07 12:41 | 8.99589 | 69.80143 | 34824 ft | 496 kts | 141° |
| 2026-05-07 12:41 | 8.94145 | 69.84331 | 34823 ft | 495 kts | 141° |
| 2026-05-07 12:42 | 8.88660 | 69.88548 | 34827 ft | 494 kts | 141° |
| 2026-05-07 12:42 | 8.83197 | 69.92747 | 34823 ft | 492 kts | 141° |
| 2026-05-07 12:43 | 8.77745 | 69.96936 | 34820 ft | 493 kts | 141° |
| 2026-05-07 12:43 | 8.72337 | 70.01090 | 34820 ft | 492 kts | 141° |
| 2026-05-07 12:44 | 8.66869 | 70.05288 | 34818 ft | 493 kts | 141° |
| 2026-05-07 12:44 | 8.61402 | 70.09484 | 34816 ft | 494 kts | 141° |
| 2026-05-07 12:45 | 8.55945 | 70.13671 | 34816 ft | 492 kts | 141° |
| 2026-05-07 12:45 | 8.50525 | 70.17827 | 34815 ft | 492 kts | 141° |
| 2026-05-07 12:46 | 8.45084 | 70.21998 | 34816 ft | 491 kts | 141° |
| 2026-05-07 12:46 | 8.39645 | 70.26168 | 34815 ft | 492 kts | 142° |
| 2026-05-07 12:47 | 8.34170 | 70.30362 | 34816 ft | 496 kts | 142° |
| 2026-05-07 12:47 | 8.28680 | 70.34568 | 34813 ft | 501 kts | 142° |
| 2026-05-07 12:48 | 8.23100 | 70.38839 | 34812 ft | 505 kts | 142° |
| 2026-05-07 12:48 | 8.17485 | 70.43134 | 34813 ft | 508 kts | 141° |
| 2026-05-07 12:49 | 8.11884 | 70.47419 | 34810 ft | 509 kts | 141° |
| 2026-05-07 12:49 | 8.06234 | 70.51739 | 34810 ft | 510 kts | 141° |
| 2026-05-07 12:50 | 8.00585 | 70.56056 | 34813 ft | 510 kts | 141° |
| 2026-05-07 12:50 | 7.94929 | 70.60379 | 34812 ft | 511 kts | 142° |
| 2026-05-07 12:51 | 7.89259 | 70.64711 | 34812 ft | 511 kts | 142° |
| 2026-05-07 12:51 | 7.83625 | 70.69012 | 34812 ft | 512 kts | 142° |
| 2026-05-07 12:52 | 7.77933 | 70.73358 | 34813 ft | 513 kts | 141° |
| 2026-05-07 12:52 | 7.72245 | 70.77698 | 34813 ft | 512 kts | 141° |
| 2026-05-07 12:53 | 7.66560 | 70.82034 | 34812 ft | 513 kts | 142° |
| 2026-05-07 12:53 | 7.60914 | 70.86339 | 34812 ft | 512 kts | 141° |
| 2026-05-07 12:54 | 7.55238 | 70.90667 | 34813 ft | 512 kts | 141° |
| 2026-05-07 12:54 | 7.49928 | 70.95394 | 34813 ft | 509 kts | 129° |
| 2026-05-07 12:55 | 7.45793 | 71.01162 | 34813 ft | 508 kts | 122° |
| 2026-05-07 12:55 | 7.42063 | 71.07140 | 34809 ft | 507 kts | 121° |
| 2026-05-07 12:56 | 7.38352 | 71.13186 | 34810 ft | 508 kts | 121° |
| 2026-05-07 12:56 | 7.34602 | 71.19219 | 34810 ft | 508 kts | 121° |
| 2026-05-07 12:57 | 7.30834 | 71.25232 | 34809 ft | 508 kts | 121° |
| 2026-05-07 12:57 | 7.27083 | 71.31203 | 34811 ft | 508 kts | 121° |
| 2026-05-07 12:58 | 7.23309 | 71.37209 | 34809 ft | 508 kts | 121° |
| 2026-05-07 12:58 | 7.19530 | 71.43224 | 34807 ft | 508 kts | 121° |
| 2026-05-07 12:59 | 7.15748 | 71.49241 | 34809 ft | 508 kts | 121° |
| 2026-05-07 12:59 | 7.11990 | 71.55220 | 34811 ft | 509 kts | 121° |
| 2026-05-07 13:00 | 7.08212 | 71.61230 | 34811 ft | 507 kts | 121° |
| 2026-05-07 13:00 | 7.04443 | 71.67219 | 34812 ft | 506 kts | 121° |
| 2026-05-07 13:01 | 7.00678 | 71.73201 | 34807 ft | 506 kts | 121° |
| 2026-05-07 13:01 | 6.96935 | 71.79146 | 34807 ft | 506 kts | 121° |
| 2026-05-07 13:02 | 6.93167 | 71.85127 | 34807 ft | 506 kts | 121° |
| 2026-05-07 13:02 | 6.89399 | 71.91108 | 34799 ft | 506 kts | 121° |
| 2026-05-07 13:03 | 6.85643 | 71.97069 | 34807 ft | 504 kts | 121° |
| 2026-05-07 13:03 | 6.81911 | 72.02988 | 34806 ft | 504 kts | 121° |
| 2026-05-07 13:04 | 6.78151 | 72.08949 | 34810 ft | 505 kts | 121° |
| 2026-05-07 13:04 | 6.74390 | 72.14910 | 34804 ft | 505 kts | 121° |
| 2026-05-07 13:05 | 6.70628 | 72.20871 | 34801 ft | 505 kts | 121° |
| 2026-05-07 13:05 | 6.66886 | 72.26797 | 34799 ft | 505 kts | 121° |
| 2026-05-07 13:06 | 6.63122 | 72.32758 | 34801 ft | 505 kts | 121° |
| 2026-05-07 13:06 | 6.59352 | 72.38725 | 34802 ft | 505 kts | 121° |
| 2026-05-07 13:07 | 6.55584 | 72.44687 | 34804 ft | 505 kts | 121° |
| 2026-05-07 13:07 | 6.51838 | 72.50612 | 34802 ft | 506 kts | 121° |
| 2026-05-07 13:08 | 6.48062 | 72.56583 | 34804 ft | 506 kts | 121° |
| 2026-05-07 13:08 | 6.44280 | 72.62561 | 34805 ft | 507 kts | 121° |
| 2026-05-07 13:09 | 6.40491 | 72.68548 | 34802 ft | 507 kts | 121° |
| 2026-05-07 13:09 | 6.36728 | 72.74492 | 34801 ft | 507 kts | 121° |
| 2026-05-07 13:10 | 6.32940 | 72.80474 | 34805 ft | 507 kts | 121° |
| 2026-05-07 13:10 | 6.29148 | 72.86459 | 34801 ft | 507 kts | 121° |
| 2026-05-07 13:11 | 6.25355 | 72.92445 | 34801 ft | 507 kts | 121° |
| 2026-05-07 13:11 | 6.21591 | 72.98381 | 34802 ft | 507 kts | 121° |
| 2026-05-07 13:12 | 6.17800 | 73.04361 | 34802 ft | 508 kts | 121° |
| 2026-05-07 13:12 | 6.14000 | 73.10352 | 34800 ft | 508 kts | 121° |
| 2026-05-07 13:13 | 6.10204 | 73.16335 | 34801 ft | 508 kts | 121° |
| 2026-05-07 13:13 | 6.06426 | 73.22287 | 34801 ft | 508 kts | 121° |
| 2026-05-07 13:14 | 6.02629 | 73.28267 | 34802 ft | 508 kts | 121° |
| 2026-05-07 13:14 | 5.98824 | 73.34259 | 34803 ft | 509 kts | 121° |
| 2026-05-07 13:15 | 5.95019 | 73.40248 | 34802 ft | 509 kts | 121° |
| 2026-05-07 13:15 | 5.91230 | 73.46211 | 34801 ft | 509 kts | 121° |
| 2026-05-07 13:16 | 5.87416 | 73.52210 | 34798 ft | 509 kts | 121° |
| 2026-05-07 13:16 | 5.83605 | 73.58203 | 34799 ft | 509 kts | 121° |
| 2026-05-07 13:17 | 5.79787 | 73.64206 | 34798 ft | 510 kts | 121° |
| 2026-05-07 13:17 | 5.76000 | 73.70160 | 34799 ft | 510 kts | 121° |
| 2026-05-07 13:18 | 5.72180 | 73.76161 | 34801 ft | 509 kts | 121° |
| 2026-05-07 13:18 | 5.68366 | 73.82151 | 34798 ft | 509 kts | 122° |
| 2026-05-07 13:19 | 5.64551 | 73.88142 | 34796 ft | 510 kts | 121° |
| 2026-05-07 13:19 | 5.60756 | 73.94099 | 34796 ft | 509 kts | 121° |
| 2026-05-07 13:20 | 5.56939 | 74.00090 | 34797 ft | 510 kts | 122° |
| 2026-05-07 13:20 | 5.53117 | 74.06087 | 34798 ft | 510 kts | 122° |
| 2026-05-07 13:21 | 5.49293 | 74.12086 | 34800 ft | 511 kts | 122° |
| 2026-05-07 13:21 | 5.45496 | 74.18037 | 34799 ft | 509 kts | 121° |
| 2026-05-07 13:22 | 5.41679 | 74.24020 | 34801 ft | 509 kts | 122° |
| 2026-05-07 13:22 | 5.37862 | 74.30002 | 34802 ft | 509 kts | 121° |
| 2026-05-07 13:23 | 5.34048 | 74.35978 | 34799 ft | 508 kts | 121° |
| 2026-05-07 13:23 | 5.30280 | 74.41880 | 34798 ft | 504 kts | 122° |
| 2026-05-07 13:24 | 5.26507 | 74.47788 | 34799 ft | 502 kts | 122° |
| 2026-05-07 13:24 | 5.22737 | 74.53690 | 34798 ft | 502 kts | 122° |
| 2026-05-07 13:25 | 5.18968 | 74.59589 | 34801 ft | 502 kts | 122° |
| 2026-05-07 13:25 | 5.15225 | 74.65446 | 34798 ft | 502 kts | 122° |
| 2026-05-07 13:26 | 5.11460 | 74.71336 | 34801 ft | 500 kts | 122° |
| 2026-05-07 13:26 | 5.07705 | 74.77207 | 34799 ft | 499 kts | 122° |
| 2026-05-07 13:27 | 5.03957 | 74.83066 | 34796 ft | 499 kts | 122° |
| 2026-05-07 13:27 | 5.00230 | 74.88891 | 34800 ft | 499 kts | 122° |
| 2026-05-07 13:28 | 4.96476 | 74.94757 | 34799 ft | 499 kts | 122° |
| 2026-05-07 13:28 | 4.92727 | 75.00614 | 34798 ft | 499 kts | 122° |
| 2026-05-07 13:29 | 4.88972 | 75.06479 | 34800 ft | 499 kts | 122° |
| 2026-05-07 13:29 | 4.85246 | 75.12296 | 34802 ft | 499 kts | 122° |
| 2026-05-07 13:30 | 4.81493 | 75.18156 | 34801 ft | 499 kts | 122° |
| 2026-05-07 13:30 | 4.77738 | 75.24014 | 34800 ft | 500 kts | 122° |
| 2026-05-07 13:31 | 4.73977 | 75.29883 | 34798 ft | 501 kts | 122° |
| 2026-05-07 13:31 | 4.70235 | 75.35721 | 34802 ft | 501 kts | 122° |
| 2026-05-07 13:32 | 4.66466 | 75.41599 | 34801 ft | 502 kts | 122° |
| 2026-05-07 13:32 | 4.62693 | 75.47482 | 34801 ft | 502 kts | 122° |
| 2026-05-07 13:33 | 4.58915 | 75.53370 | 34802 ft | 502 kts | 122° |
| 2026-05-07 13:33 | 4.55166 | 75.59213 | 34804 ft | 502 kts | 122° |
| 2026-05-07 13:34 | 4.49505 | 75.68033 | 34802 ft | 502 kts | 122° |
| 2026-05-07 13:35 | 4.45730 | 75.73912 | 34802 ft | 502 kts | 122° |
| 2026-05-07 13:35 | 4.41956 | 75.79789 | 34800 ft | 501 kts | 122° |
| 2026-05-07 13:36 | 4.38207 | 75.85626 | 34804 ft | 501 kts | 122° |
| 2026-05-07 13:36 | 4.34435 | 75.91496 | 34804 ft | 501 kts | 122° |
| 2026-05-07 13:37 | 4.30666 | 75.97362 | 34804 ft | 501 kts | 122° |
| 2026-05-07 13:37 | 4.26897 | 76.03226 | 34804 ft | 501 kts | 122° |
| 2026-05-07 13:38 | 4.23148 | 76.09058 | 34804 ft | 501 kts | 122° |
| 2026-05-07 13:38 | 4.19377 | 76.14922 | 34801 ft | 501 kts | 122° |
| 2026-05-07 13:39 | 4.15606 | 76.20785 | 34805 ft | 501 kts | 122° |
| 2026-05-07 13:39 | 4.11857 | 76.26613 | 34802 ft | 501 kts | 122° |
| 2026-05-07 13:40 | 4.08087 | 76.32473 | 34805 ft | 501 kts | 122° |
| 2026-05-07 13:40 | 4.04314 | 76.38336 | 34807 ft | 501 kts | 122° |
| 2026-05-07 13:41 | 4.00538 | 76.44201 | 34809 ft | 501 kts | 122° |
| 2026-05-07 13:41 | 3.96762 | 76.50067 | 34807 ft | 501 kts | 122° |
| 2026-05-07 13:42 | 3.93015 | 76.55884 | 34805 ft | 500 kts | 121° |
| 2026-05-07 13:42 | 3.89245 | 76.61737 | 34807 ft | 500 kts | 121° |
| 2026-05-07 13:43 | 3.85476 | 76.67589 | 34807 ft | 500 kts | 122° |
| 2026-05-07 13:43 | 3.81704 | 76.73443 | 34805 ft | 500 kts | 122° |
| 2026-05-07 13:44 | 3.77956 | 76.79258 | 34807 ft | 500 kts | 122° |
| 2026-05-07 13:44 | 3.74184 | 76.85110 | 34812 ft | 500 kts | 122° |
| 2026-05-07 13:45 | 3.70413 | 76.90959 | 34807 ft | 500 kts | 121° |
| 2026-05-07 13:45 | 3.66641 | 76.96809 | 34808 ft | 500 kts | 121° |
| 2026-05-07 13:46 | 3.62895 | 77.02618 | 34809 ft | 500 kts | 121° |
| 2026-05-07 13:46 | 3.59125 | 77.08461 | 34810 ft | 500 kts | 121° |
| 2026-05-07 13:47 | 3.55357 | 77.14302 | 34811 ft | 500 kts | 121° |
| 2026-05-07 13:47 | 3.51583 | 77.20150 | 34812 ft | 500 kts | 121° |
| 2026-05-07 13:48 | 3.47839 | 77.25951 | 34810 ft | 500 kts | 121° |
| 2026-05-07 13:48 | 3.44064 | 77.31799 | 34814 ft | 500 kts | 121° |
| 2026-05-07 13:49 | 3.40289 | 77.37647 | 34813 ft | 500 kts | 121° |
| 2026-05-07 13:49 | 3.36508 | 77.43501 | 34811 ft | 500 kts | 121° |
| 2026-05-07 13:50 | 3.32760 | 77.49305 | 34811 ft | 500 kts | 121° |
| 2026-05-07 13:50 | 3.28984 | 77.55150 | 34817 ft | 500 kts | 121° |
| 2026-05-07 13:51 | 3.25211 | 77.60991 | 34814 ft | 500 kts | 121° |
| 2026-05-07 13:51 | 3.21433 | 77.66838 | 34811 ft | 501 kts | 121° |
| 2026-05-07 13:52 | 3.17671 | 77.72658 | 34814 ft | 501 kts | 121° |
| 2026-05-07 13:52 | 3.13889 | 77.78508 | 34810 ft | 501 kts | 121° |
| 2026-05-07 13:53 | 3.10106 | 77.84361 | 34814 ft | 501 kts | 121° |
| 2026-05-07 13:53 | 3.06320 | 77.90216 | 34811 ft | 501 kts | 121° |
| 2026-05-07 13:54 | 3.02562 | 77.96028 | 34812 ft | 501 kts | 122° |
| 2026-05-07 13:54 | 2.98556 | 78.01738 | 34809 ft | 503 kts | 127° |
| 2026-05-07 13:55 | 2.94194 | 78.07210 | 34814 ft | 504 kts | 127° |
| 2026-05-07 13:55 | 2.89771 | 78.12659 | 34816 ft | 504 kts | 128° |
| 2026-05-07 13:56 | 2.85380 | 78.18067 | 34811 ft | 504 kts | 128° |
| 2026-05-07 13:56 | 2.80962 | 78.23519 | 34814 ft | 504 kts | 127° |
| 2026-05-07 13:57 | 2.76551 | 78.28969 | 34812 ft | 504 kts | 127° |
| 2026-05-07 13:57 | 2.72167 | 78.34386 | 34813 ft | 504 kts | 127° |
| 2026-05-07 13:58 | 2.67759 | 78.39832 | 34814 ft | 504 kts | 127° |
| 2026-05-07 13:58 | 2.63343 | 78.45287 | 34814 ft | 504 kts | 127° |
| 2026-05-07 13:59 | 2.58930 | 78.50736 | 34816 ft | 504 kts | 127° |
| 2026-05-07 13:59 | 2.54514 | 78.56190 | 34814 ft | 505 kts | 127° |
| 2026-05-07 14:00 | 2.50126 | 78.61607 | 34820 ft | 505 kts | 127° |
| 2026-05-07 14:00 | 2.45706 | 78.67064 | 34815 ft | 505 kts | 128° |
| 2026-05-07 14:01 | 2.41287 | 78.72519 | 34807 ft | 506 kts | 128° |
| 2026-05-07 14:01 | 2.36884 | 78.77954 | 34809 ft | 506 kts | 128° |
| 2026-05-07 14:02 | 2.32454 | 78.83420 | 34810 ft | 506 kts | 128° |
| 2026-05-07 14:02 | 2.28019 | 78.88892 | 34826 ft | 506 kts | 128° |
| 2026-05-07 14:03 | 2.23589 | 78.94359 | 34811 ft | 506 kts | 128° |
| 2026-05-07 14:03 | 2.19185 | 78.99792 | 34810 ft | 506 kts | 128° |
| 2026-05-07 14:04 | 2.14749 | 79.05264 | 34811 ft | 506 kts | 128° |
| 2026-05-07 14:04 | 2.10317 | 79.10730 | 34825 ft | 506 kts | 128° |
| 2026-05-07 14:05 | 2.05885 | 79.16197 | 34828 ft | 506 kts | 128° |
| 2026-05-07 14:05 | 2.01474 | 79.21636 | 34811 ft | 506 kts | 128° |
| 2026-05-07 14:06 | 1.97039 | 79.27105 | 34808 ft | 507 kts | 128° |
| 2026-05-07 14:06 | 1.92604 | 79.32573 | 34808 ft | 506 kts | 128° |
| 2026-05-07 14:07 | 1.88163 | 79.38048 | 34808 ft | 506 kts | 128° |
| 2026-05-07 14:07 | 1.83730 | 79.43513 | 34815 ft | 506 kts | 128° |
| 2026-05-07 14:08 | 1.79325 | 79.48943 | 34819 ft | 506 kts | 128° |
| 2026-05-07 14:08 | 1.74894 | 79.54405 | 34816 ft | 506 kts | 128° |
| 2026-05-07 14:09 | 1.70462 | 79.59866 | 34817 ft | 506 kts | 128° |
| 2026-05-07 14:09 | 1.66057 | 79.65295 | 34816 ft | 506 kts | 128° |
| 2026-05-07 14:10 | 1.61625 | 79.70756 | 34815 ft | 506 kts | 128° |
| 2026-05-07 14:10 | 1.57190 | 79.76221 | 34816 ft | 506 kts | 128° |
| 2026-05-07 14:11 | 1.52760 | 79.81679 | 34816 ft | 506 kts | 128° |
| 2026-05-07 14:11 | 1.48357 | 79.87104 | 34819 ft | 506 kts | 128° |
| 2026-05-07 14:12 | 1.43917 | 79.92574 | 34820 ft | 507 kts | 128° |
| 2026-05-07 14:12 | 1.39477 | 79.98042 | 34817 ft | 507 kts | 128° |
| 2026-05-07 14:13 | 1.35033 | 80.03516 | 34822 ft | 507 kts | 128° |
| 2026-05-07 14:13 | 1.30592 | 80.08986 | 34822 ft | 507 kts | 128° |
| 2026-05-07 14:14 | 1.26179 | 80.14420 | 34822 ft | 507 kts | 128° |
| 2026-05-07 14:14 | 1.21735 | 80.19893 | 34820 ft | 507 kts | 128° |
| 2026-05-07 14:15 | 1.17296 | 80.25359 | 34834 ft | 507 kts | 128° |
| 2026-05-07 14:15 | 1.12883 | 80.30792 | 34819 ft | 506 kts | 128° |
| 2026-05-07 14:16 | 1.08444 | 80.36258 | 34822 ft | 507 kts | 128° |
| 2026-05-07 14:16 | 1.03995 | 80.41736 | 34819 ft | 507 kts | 128° |
| 2026-05-07 14:17 | 0.99549 | 80.47209 | 34820 ft | 507 kts | 128° |
| 2026-05-07 14:17 | 0.95100 | 80.52687 | 34825 ft | 507 kts | 128° |
| 2026-05-07 14:18 | 0.90683 | 80.58124 | 34822 ft | 507 kts | 128° |
| 2026-05-07 14:18 | 0.86231 | 80.63604 | 34822 ft | 507 kts | 128° |
| 2026-05-07 14:19 | 0.81782 | 80.69081 | 34820 ft | 507 kts | 128° |
| 2026-05-07 14:19 | 0.77336 | 80.74553 | 34819 ft | 508 kts | 128° |
| 2026-05-07 14:20 | 0.72917 | 80.79992 | 34822 ft | 508 kts | 128° |
| 2026-05-07 14:20 | 0.68461 | 80.85476 | 34825 ft | 508 kts | 128° |
| 2026-05-07 14:21 | 0.64007 | 80.90958 | 34818 ft | 508 kts | 128° |
| 2026-05-07 14:21 | 0.59550 | 80.96443 | 34825 ft | 508 kts | 128° |
| 2026-05-07 14:22 | 0.55131 | 81.01880 | 34823 ft | 508 kts | 128° |
| 2026-05-07 14:22 | 0.50679 | 81.07360 | 34836 ft | 508 kts | 128° |
| 2026-05-07 14:23 | 0.46232 | 81.12833 | 34820 ft | 508 kts | 128° |
| 2026-05-07 14:23 | 0.41777 | 81.18315 | 34840 ft | 508 kts | 128° |
| 2026-05-07 14:24 | 0.37359 | 81.23751 | 34827 ft | 508 kts | 128° |
| 2026-05-07 14:24 | 0.32906 | 81.29232 | 34825 ft | 507 kts | 128° |
| 2026-05-07 14:25 | 0.28463 | 81.34699 | 34836 ft | 507 kts | 128° |
| 2026-05-07 14:25 | 0.24021 | 81.40164 | 34819 ft | 506 kts | 128° |
| 2026-05-07 14:26 | 0.19614 | 81.45587 | 34821 ft | 506 kts | 128° |
| 2026-05-07 14:26 | 0.15174 | 81.51051 | 34840 ft | 506 kts | 128° |
| 2026-05-07 14:27 | 0.10739 | 81.56507 | 34839 ft | 506 kts | 128° |
| 2026-05-07 14:27 | 0.06298 | 81.61973 | 34823 ft | 506 kts | 128° |
| 2026-05-07 14:28 | 0.01892 | 81.67394 | 34823 ft | 506 kts | 128° |
| 2026-05-07 14:28 | -0.02549 | 81.72857 | 34830 ft | 506 kts | 128° |
| 2026-05-07 14:29 | -0.06977 | 81.78305 | 34825 ft | 505 kts | 128° |
| 2026-05-07 14:29 | -0.11375 | 81.83718 | 34826 ft | 505 kts | 128° |
| 2026-05-07 14:30 | -0.15805 | 81.89169 | 34844 ft | 505 kts | 128° |
| 2026-05-07 14:30 | -0.20231 | 81.94615 | 34843 ft | 505 kts | 128° |
| 2026-05-07 14:31 | -0.24660 | 82.00064 | 34831 ft | 505 kts | 128° |
| 2026-05-07 14:31 | -0.29055 | 82.05473 | 34829 ft | 505 kts | 128° |
| 2026-05-07 14:32 | -0.33481 | 82.10919 | 34833 ft | 505 kts | 128° |
| 2026-05-07 14:32 | -0.37912 | 82.16372 | 34833 ft | 505 kts | 128° |
| 2026-05-07 14:33 | -0.42336 | 82.21816 | 34849 ft | 505 kts | 128° |
| 2026-05-07 14:33 | -0.46767 | 82.27268 | 34835 ft | 505 kts | 128° |
| 2026-05-07 14:34 | -0.51166 | 82.32681 | 34831 ft | 505 kts | 128° |
| 2026-05-07 14:34 | -0.55599 | 82.38138 | 34834 ft | 505 kts | 128° |
| 2026-05-07 14:35 | -0.60027 | 82.43587 | 34853 ft | 505 kts | 128° |
| 2026-05-07 14:35 | -0.64430 | 82.49006 | 34852 ft | 506 kts | 128° |
| 2026-05-07 14:36 | -0.68866 | 82.54465 | 34851 ft | 505 kts | 128° |
| 2026-05-07 14:36 | -0.73294 | 82.59915 | 34835 ft | 505 kts | 128° |
| 2026-05-07 14:37 | -0.77722 | 82.65364 | 34841 ft | 506 kts | 127° |
| 2026-05-07 14:37 | -0.84359 | 82.73534 | 34856 ft | 507 kts | 127° |
| 2026-05-07 14:38 | -0.88802 | 82.79003 | 34853 ft | 507 kts | 128° |
| 2026-05-07 14:38 | -0.93244 | 82.84472 | 34836 ft | 507 kts | 128° |